AFR358P LFPG-CYYZ
Flight info
| Callsign | AFR358P |
|---|---|
| Flight time | N/A |
| Altitude | 36000 |
| Route | ELCOB UT300 SENLO UN502 JSY DCT LIZAD DCT LESLU DCT MALOT/M081F360 DCT 5320N DCT 5230N DCT 5140N DCT 5050N DCT ELSIR/N0463F360 N412A MIILS DCT VILRO DCT SAVEX Q806 TUKIR RAGID6 |
| Aircraft | B772/H-SDE2E3FGHIJ5LORVWXY/LB1D1 |
Departure
| Time | 2026-04-30 21:21 |
|---|---|
| Airport | Charles de Gaulle International Airport (LFPG) |
Arrival
| Time | N/A |
|---|---|
| Airport | Toronto Pearson International Airport (CYYZ) |
| Time | Latitude | Longitude | Altitude | Speed | Heading |
|---|---|---|---|---|---|
| 2026-04-30 20:39 | 49.00116 | 2.58448 | 331 ft | 0 kts | 88° |
| 2026-04-30 20:41 | 49.00131 | 2.58412 | 362 ft | 0 kts | 86° |
| 2026-04-30 20:51 | 49.00117 | 2.58451 | 331 ft | 0 kts | 88° |
| 2026-04-30 21:07 | 49.00116 | 2.58447 | 359 ft | 2 kts | 89° |
| 2026-04-30 21:07 | 49.00116 | 2.58432 | 366 ft | 3 kts | 107° |
| 2026-04-30 21:07 | 49.00125 | 2.58406 | 364 ft | 3 kts | 117° |
| 2026-04-30 21:08 | 49.00129 | 2.58380 | 362 ft | 3 kts | 86° |
| 2026-04-30 21:08 | 49.00130 | 2.58340 | 363 ft | 3 kts | 112° |
| 2026-04-30 21:08 | 49.00136 | 2.58325 | 366 ft | 3 kts | 143° |
| 2026-04-30 21:08 | 49.00150 | 2.58316 | 367 ft | 2 kts | 175° |
| 2026-04-30 21:09 | 49.00169 | 2.58314 | 363 ft | 2 kts | 176° |
| 2026-04-30 21:09 | 49.00175 | 2.58313 | 359 ft | 0 kts | 176° |
| 2026-04-30 21:09 | 49.00176 | 2.58313 | 359 ft | 0 kts | 176° |
| 2026-04-30 21:11 | 49.00175 | 2.58313 | 361 ft | 2 kts | 176° |
| 2026-04-30 21:11 | 49.00145 | 2.58315 | 365 ft | 8 kts | 179° |
| 2026-04-30 21:11 | 49.00132 | 2.58315 | 361 ft | 0 kts | 179° |
| 2026-04-30 21:12 | 49.00079 | 2.58318 | 361 ft | 19 kts | 176° |
| 2026-04-30 21:12 | 49.00006 | 2.58265 | 366 ft | 11 kts | 263° |
| 2026-04-30 21:12 | 49.00003 | 2.58148 | 361 ft | 11 kts | 268° |
| 2026-04-30 21:12 | 48.99997 | 2.58026 | 358 ft | 14 kts | 265° |
| 2026-04-30 21:13 | 48.99986 | 2.57832 | 366 ft | 23 kts | 265° |
| 2026-04-30 21:13 | 48.99972 | 2.57553 | 362 ft | 29 kts | 266° |
| 2026-04-30 21:13 | 48.99956 | 2.57249 | 362 ft | 29 kts | 265° |
| 2026-04-30 21:13 | 48.99940 | 2.56945 | 362 ft | 29 kts | 266° |
| 2026-04-30 21:14 | 48.99924 | 2.56682 | 362 ft | 12 kts | 264° |
| 2026-04-30 21:14 | 48.99919 | 2.56602 | 362 ft | 5 kts | 264° |
| 2026-04-30 21:14 | 48.99914 | 2.56509 | 365 ft | 17 kts | 265° |
| 2026-04-30 21:14 | 48.99901 | 2.56243 | 365 ft | 26 kts | 266° |
| 2026-04-30 21:15 | 48.99891 | 2.55967 | 359 ft | 25 kts | 274° |
| 2026-04-30 21:15 | 48.99892 | 2.55814 | 365 ft | 11 kts | 230° |
| 2026-04-30 21:15 | 48.99841 | 2.55799 | 366 ft | 5 kts | 181° |
| 2026-04-30 21:15 | 48.99806 | 2.55800 | 365 ft | 5 kts | 178° |
| 2026-04-30 21:16 | 48.99772 | 2.55802 | 364 ft | 5 kts | 178° |
| 2026-04-30 21:16 | 48.99739 | 2.55805 | 363 ft | 5 kts | 175° |
| 2026-04-30 21:16 | 48.99709 | 2.55811 | 360 ft | 0 kts | 172° |
| 2026-04-30 21:17 | 48.99710 | 2.55811 | 360 ft | 0 kts | 172° |
| 2026-04-30 21:17 | 48.99709 | 2.55811 | 360 ft | 0 kts | 172° |
| 2026-04-30 21:18 | 48.99677 | 2.55817 | 362 ft | 11 kts | 172° |
| 2026-04-30 21:18 | 48.99605 | 2.55859 | 365 ft | 9 kts | 117° |
| 2026-04-30 21:18 | 48.99605 | 2.55894 | 364 ft | 0 kts | 86° |
| 2026-04-30 21:20 | 48.99610 | 2.56020 | 358 ft | 36 kts | 86° |
| 2026-04-30 21:20 | 48.99651 | 2.56789 | 359 ft | 107 kts | 85° |
| 2026-04-30 21:20 | 48.99730 | 2.58219 | 371 ft | 164 kts | 84° |
| 2026-04-30 21:20 | 48.99818 | 2.60025 | 927 ft | 172 kts | 86° |
| 2026-04-30 21:21 | 48.99919 | 2.61791 | 1913 ft | 163 kts | 88° |
| 2026-04-30 21:21 | 49.00098 | 2.63491 | 2732 ft | 167 kts | 86° |
| 2026-04-30 21:21 | 49.00517 | 2.67227 | 3647 ft | 188 kts | 86° |
| 2026-04-30 21:22 | 49.00705 | 2.69232 | 4169 ft | 195 kts | 85° |
| 2026-04-30 21:22 | 49.01225 | 2.76277 | 4938 ft | 252 kts | 85° |
| 2026-04-30 21:23 | 49.01387 | 2.79032 | 5221 ft | 270 kts | 86° |
| 2026-04-30 21:23 | 49.01537 | 2.81917 | 5759 ft | 276 kts | 86° |
| 2026-04-30 21:23 | 49.01852 | 2.87781 | 7068 ft | 279 kts | 86° |
| 2026-04-30 21:24 | 49.02012 | 2.90726 | 7622 ft | 283 kts | 85° |
| 2026-04-30 21:24 | 49.02188 | 2.93740 | 8179 ft | 286 kts | 85° |
| 2026-04-30 21:24 | 49.02371 | 2.96743 | 8814 ft | 285 kts | 85° |
| 2026-04-30 21:24 | 49.02550 | 2.99746 | 9423 ft | 286 kts | 86° |
| 2026-04-30 21:25 | 49.03825 | 3.05294 | 10376 ft | 294 kts | 48° |
| 2026-04-30 21:25 | 49.05520 | 3.07177 | 10469 ft | 315 kts | 26° |
| 2026-04-30 21:25 | 49.07702 | 3.07935 | 10628 ft | 329 kts | 5° |
| 2026-04-30 21:26 | 49.12492 | 3.08098 | 11166 ft | 358 kts | 2° |
| 2026-04-30 21:26 | 49.15002 | 3.08139 | 11745 ft | 365 kts | 2° |
| 2026-04-30 21:27 | 49.20097 | 3.08189 | 13403 ft | 369 kts | 2° |
| 2026-04-30 21:27 | 49.22683 | 3.08146 | 14098 ft | 374 kts | 358° |
| 2026-04-30 21:27 | 49.25275 | 3.07374 | 14656 ft | 385 kts | 343° |
| 2026-04-30 21:28 | 49.29902 | 3.03293 | 16090 ft | 394 kts | 319° |
| 2026-04-30 21:28 | 49.31778 | 3.00196 | 16787 ft | 398 kts | 307° |
| 2026-04-30 21:28 | 49.33938 | 2.92441 | 18084 ft | 405 kts | 272° |
| 2026-04-30 21:29 | 49.33654 | 2.88160 | 18681 ft | 403 kts | 253° |
| 2026-04-30 21:29 | 49.23303 | 2.17587 | 26682 ft | 452 kts | 265° |
| 2026-04-30 21:30 | 49.18726 | 1.38646 | 32432 ft | 486 kts | 262° |
| 2026-04-30 21:31 | 49.09993 | 0.14769 | 36291 ft | 501 kts | 262° |
| 2026-04-30 21:31 | 49.07708 | -0.67919 | 35951 ft | 464 kts | 270° |
| 2026-04-30 21:32 | 49.12573 | -1.45053 | 36263 ft | 474 kts | 285° |
| 2026-04-30 21:32 | 49.19030 | -1.84880 | 36212 ft | 482 kts | 282° |
| 2026-04-30 21:32 | 49.25446 | -2.24520 | 36106 ft | 479 kts | 283° |
| 2026-04-30 21:32 | 49.32161 | -2.63742 | 36028 ft | 470 kts | 283° |
| 2026-04-30 21:33 | 49.50794 | -3.79344 | 36211 ft | 471 kts | 282° |
| 2026-04-30 21:34 | 49.67695 | -4.55245 | 36146 ft | 480 kts | 302° |
| 2026-04-30 21:34 | 49.95684 | -5.23647 | 36064 ft | 466 kts | 298° |
| 2026-04-30 21:34 | 50.09370 | -5.58197 | 36181 ft | 475 kts | 298° |
| 2026-04-30 21:35 | 50.23317 | -5.94027 | 36187 ft | 486 kts | 298° |
| 2026-04-30 21:35 | 50.37344 | -6.30466 | 36118 ft | 490 kts | 297° |
| 2026-04-30 21:35 | 50.64888 | -7.03583 | 36061 ft | 480 kts | 296° |
| 2026-04-30 21:36 | 50.91573 | -7.76513 | 36143 ft | 489 kts | 295° |
| 2026-04-30 21:37 | 51.30342 | -8.93831 | 36013 ft | 505 kts | 291° |
| 2026-04-30 21:37 | 51.42932 | -9.33852 | 36045 ft | 505 kts | 291° |
| 2026-04-30 21:37 | 51.67874 | -10.15159 | 36041 ft | 510 kts | 291° |
| 2026-04-30 21:38 | 51.92378 | -10.97871 | 36055 ft | 511 kts | 292° |
| 2026-04-30 21:38 | 52.16246 | -11.81101 | 36027 ft | 511 kts | 292° |
| 2026-04-30 21:39 | 52.39459 | -12.65234 | 36019 ft | 507 kts | 293° |
| 2026-04-30 21:39 | 52.62009 | -13.49764 | 36037 ft | 504 kts | 293° |
| 2026-04-30 21:40 | 52.83877 | -14.35029 | 36098 ft | 502 kts | 293° |
| 2026-04-30 21:40 | 53.01077 | -15.21306 | 36149 ft | 498 kts | 269° |
| 2026-04-30 21:41 | 53.01853 | -16.13088 | 36107 ft | 497 kts | 271° |
| 2026-04-30 21:41 | 53.02516 | -17.04475 | 36121 ft | 494 kts | 272° |
| 2026-04-30 21:42 | 53.02532 | -17.94897 | 36166 ft | 489 kts | 272° |
| 2026-04-30 21:42 | 53.01850 | -18.84811 | 36206 ft | 485 kts | 272° |
| 2026-04-30 21:43 | 53.00518 | -19.74013 | 36231 ft | 482 kts | 271° |
| 2026-04-30 21:43 | 52.96249 | -20.62839 | 36252 ft | 483 kts | 268° |
| 2026-04-30 21:44 | 52.90493 | -21.51695 | 36310 ft | 486 kts | 268° |
| 2026-04-30 21:44 | 52.84037 | -22.40003 | 36337 ft | 488 kts | 268° |
| 2026-04-30 21:45 | 52.79630 | -22.95585 | 36322 ft | 488 kts | 268° |
| 2026-04-30 21:45 | 52.73661 | -23.66125 | 36350 ft | 488 kts | 267° |
| 2026-04-30 21:46 | 52.72679 | -23.77212 | 36339 ft | 488 kts | 267° |
| 2026-04-30 21:46 | 52.71694 | -23.88201 | 36354 ft | 487 kts | 267° |
| 2026-04-30 21:47 | 52.69079 | -24.16976 | 36362 ft | 487 kts | 267° |
| 2026-04-30 21:47 | 52.60627 | -25.04942 | 36387 ft | 484 kts | 266° |
| 2026-04-30 21:48 | 52.51580 | -25.91990 | 36373 ft | 483 kts | 264° |
| 2026-04-30 21:48 | 52.41949 | -26.78145 | 36403 ft | 483 kts | 264° |
| 2026-04-30 21:49 | 52.31647 | -27.64356 | 36412 ft | 482 kts | 263° |
| 2026-04-30 21:49 | 52.20748 | -28.49977 | 36423 ft | 483 kts | 261° |
| 2026-04-30 21:50 | 52.09180 | -29.35521 | 36451 ft | 483 kts | 260° |
| 2026-04-30 21:50 | 51.98453 | -30.20009 | 36486 ft | 474 kts | 269° |
| 2026-04-30 21:51 | 51.93601 | -31.05782 | 36478 ft | 481 kts | 266° |
| 2026-04-30 21:51 | 51.87676 | -31.92222 | 36466 ft | 483 kts | 265° |
| 2026-04-30 21:52 | 51.81086 | -32.78452 | 36465 ft | 484 kts | 264° |
| 2026-04-30 21:52 | 51.73900 | -33.64264 | 36465 ft | 486 kts | 263° |
| 2026-04-30 21:53 | 51.66034 | -34.50358 | 36483 ft | 486 kts | 262° |
| 2026-04-30 21:53 | 51.57477 | -35.36631 | 36485 ft | 488 kts | 261° |
| 2026-04-30 21:54 | 51.48302 | -36.22575 | 36475 ft | 489 kts | 259° |
| 2026-04-30 21:54 | 51.38549 | -37.07754 | 36477 ft | 489 kts | 259° |
| 2026-04-30 21:55 | 51.28081 | -37.93309 | 36496 ft | 489 kts | 258° |
| 2026-04-30 21:55 | 51.17010 | -38.78354 | 36485 ft | 491 kts | 257° |
| 2026-04-30 21:56 | 51.05294 | -39.63217 | 36481 ft | 492 kts | 256° |
| 2026-04-30 21:56 | 50.97223 | -40.48997 | 36527 ft | 493 kts | 264° |
| 2026-04-30 21:57 | 50.91700 | -41.35072 | 36474 ft | 495 kts | 262° |
| 2026-04-30 21:57 | 50.85527 | -42.21799 | 36478 ft | 494 kts | 262° |
| 2026-04-30 21:58 | 50.78718 | -43.08221 | 36460 ft | 495 kts | 261° |
| 2026-04-30 21:58 | 50.72555 | -43.80096 | 36457 ft | 495 kts | 261° |
| 2026-04-30 21:59 | 50.71605 | -43.90686 | 36454 ft | 492 kts | 261° |
| 2026-04-30 22:00 | 50.70148 | -44.06718 | 36459 ft | 492 kts | 261° |
| 2026-04-30 22:00 | 50.66745 | -44.43335 | 36473 ft | 492 kts | 261° |
| 2026-04-30 22:01 | 50.62655 | -44.85723 | 36459 ft | 492 kts | 260° |
| 2026-04-30 22:01 | 50.58378 | -45.28363 | 36457 ft | 492 kts | 260° |
| 2026-04-30 22:02 | 50.53959 | -45.70804 | 36456 ft | 492 kts | 260° |
| 2026-04-30 22:02 | 50.49388 | -46.13141 | 36459 ft | 491 kts | 259° |
| 2026-04-30 22:03 | 50.44675 | -46.55301 | 36451 ft | 490 kts | 259° |
| 2026-04-30 22:03 | 50.39827 | -46.97229 | 36460 ft | 488 kts | 259° |
| 2026-04-30 22:04 | 50.34880 | -47.38650 | 36451 ft | 486 kts | 259° |
| 2026-04-30 22:05 | 50.27164 | -48.00770 | 36447 ft | 483 kts | 258° |
| 2026-04-30 22:05 | 50.21865 | -48.41853 | 36449 ft | 481 kts | 258° |
| 2026-04-30 22:06 | 50.16503 | -48.82241 | 36442 ft | 478 kts | 258° |
| 2026-04-30 22:06 | 50.08169 | -49.42858 | 36436 ft | 474 kts | 257° |
| 2026-04-30 22:07 | 50.02495 | -49.82766 | 36427 ft | 471 kts | 256° |
| 2026-04-30 22:07 | 49.94827 | -50.21606 | 36308 ft | 471 kts | 248° |
| 2026-04-30 22:08 | 49.90301 | -50.40181 | 36430 ft | 467 kts | 248° |
| 2026-04-30 22:08 | 49.85684 | -50.59090 | 36422 ft | 468 kts | 248° |
| 2026-04-30 22:08 | 49.76363 | -50.96756 | 36425 ft | 468 kts | 248° |
| 2026-04-30 22:09 | 49.66972 | -51.34070 | 36390 ft | 467 kts | 247° |
| 2026-04-30 22:09 | 49.57431 | -51.71363 | 36404 ft | 465 kts | 247° |
| 2026-04-30 22:10 | 49.49019 | -52.08532 | 36433 ft | 470 kts | 260° |
| 2026-04-30 22:10 | 49.47020 | -52.28541 | 37479 ft | 472 kts | 259° |
| 2026-04-30 22:10 | 49.44933 | -52.48377 | 38370 ft | 475 kts | 259° |
| 2026-04-30 22:11 | 49.40556 | -52.88659 | 38316 ft | 461 kts | 259° |
| 2026-04-30 22:11 | 49.38418 | -53.07851 | 38281 ft | 455 kts | 258° |
| 2026-04-30 22:11 | 49.36262 | -53.26902 | 38437 ft | 464 kts | 259° |
| 2026-04-30 22:12 | 49.34023 | -53.46388 | 38380 ft | 473 kts | 259° |
| 2026-04-30 22:12 | 49.29419 | -53.85571 | 38354 ft | 459 kts | 259° |
| 2026-04-30 22:13 | 49.24770 | -54.23946 | 38327 ft | 462 kts | 259° |
| 2026-04-30 22:13 | 49.19881 | -54.63148 | 38295 ft | 471 kts | 258° |
| 2026-04-30 22:13 | 49.17416 | -54.82495 | 38241 ft | 458 kts | 257° |
| 2026-04-30 22:14 | 49.14980 | -55.01346 | 38268 ft | 453 kts | 257° |
| 2026-04-30 22:14 | 49.11858 | -55.25136 | 38291 ft | 462 kts | 257° |
| 2026-04-30 22:15 | 49.08355 | -55.51512 | 38057 ft | 434 kts | 256° |
| 2026-04-30 22:15 | 49.03571 | -55.86467 | 38283 ft | 435 kts | 256° |
| 2026-04-30 22:15 | 48.98265 | -56.24440 | 38496 ft | 461 kts | 255° |
| 2026-04-30 22:15 | 48.92740 | -56.63056 | 38366 ft | 473 kts | 255° |
| 2026-04-30 22:16 | 48.86993 | -57.02013 | 38182 ft | 465 kts | 254° |
| 2026-04-30 22:16 | 48.81428 | -57.38969 | 38123 ft | 447 kts | 253° |
| 2026-04-30 22:17 | 48.63749 | -58.50868 | 38312 ft | 469 kts | 253° |
| 2026-04-30 22:17 | 48.57454 | -58.88974 | 38181 ft | 465 kts | 252° |
| 2026-04-30 22:17 | 48.44805 | -59.63109 | 38189 ft | 449 kts | 252° |
| 2026-04-30 22:18 | 48.24894 | -60.73860 | 38231 ft | 468 kts | 252° |
| 2026-04-30 22:19 | 48.10972 | -61.47469 | 38087 ft | 450 kts | 252° |
| 2026-04-30 22:19 | 48.03992 | -61.83384 | 38138 ft | 447 kts | 252° |
| 2026-04-30 22:19 | 47.89559 | -62.55524 | 38223 ft | 462 kts | 251° |
| 2026-04-30 22:20 | 47.82062 | -62.92017 | 38112 ft | 461 kts | 251° |
| 2026-04-30 22:20 | 47.66973 | -63.63462 | 38011 ft | 442 kts | 251° |
| 2026-04-30 22:20 | 47.59495 | -63.97964 | 38098 ft | 442 kts | 250° |
| 2026-04-30 22:21 | 47.43902 | -64.68091 | 38122 ft | 462 kts | 250° |
| 2026-04-30 22:21 | 47.27512 | -65.39474 | 37933 ft | 450 kts | 249° |
| 2026-04-30 22:22 | 47.19437 | -65.73741 | 37919 ft | 438 kts | 248° |
| 2026-04-30 22:22 | 47.11348 | -66.07567 | 38041 ft | 442 kts | 248° |
| 2026-04-30 22:22 | 46.94405 | -66.76785 | 37967 ft | 457 kts | 247° |
| 2026-04-30 22:23 | 46.90616 | -66.91984 | 37957 ft | 448 kts | 247° |
| 2026-04-30 22:23 | 46.88474 | -67.00527 | 37921 ft | 447 kts | 247° |
| 2026-04-30 22:24 | 46.86512 | -67.09152 | 37909 ft | 448 kts | 251° |
| 2026-04-30 22:24 | 46.83225 | -67.26285 | 37897 ft | 447 kts | 251° |
| 2026-04-30 22:25 | 46.76374 | -67.61198 | 37857 ft | 448 kts | 250° |
| 2026-04-30 22:25 | 46.69443 | -67.95849 | 37864 ft | 448 kts | 250° |
| 2026-04-30 22:26 | 46.58756 | -68.48114 | 37825 ft | 450 kts | 250° |
| 2026-04-30 22:27 | 46.51493 | -68.82871 | 37827 ft | 450 kts | 249° |
| 2026-04-30 22:27 | 46.40475 | -69.34500 | 37902 ft | 449 kts | 249° |
| 2026-04-30 22:28 | 46.30940 | -69.78158 | 37806 ft | 451 kts | 249° |
| 2026-04-30 22:29 | 46.27113 | -69.95428 | 37816 ft | 451 kts | 249° |
| 2026-04-30 22:31 | 46.20364 | -70.25548 | 37815 ft | 451 kts | 249° |
| 2026-04-30 22:32 | 46.15499 | -70.46996 | 37815 ft | 453 kts | 249° |
| 2026-04-30 22:33 | 46.10566 | -70.68526 | 37810 ft | 453 kts | 249° |
| 2026-04-30 22:35 | 46.05610 | -70.89947 | 37798 ft | 456 kts | 248° |
| 2026-04-30 22:36 | 46.00554 | -71.11587 | 37814 ft | 457 kts | 248° |
| 2026-04-30 22:37 | 45.96487 | -71.28836 | 37802 ft | 457 kts | 248° |
| 2026-04-30 22:38 | 45.92417 | -71.45968 | 37809 ft | 456 kts | 248° |
| 2026-04-30 22:39 | 45.89312 | -71.58946 | 37828 ft | 456 kts | 248° |
| 2026-04-30 22:40 | 45.83106 | -71.84666 | 37816 ft | 454 kts | 248° |
| 2026-04-30 22:41 | 45.77923 | -72.05923 | 37831 ft | 453 kts | 248° |
| 2026-04-30 22:43 | 45.71653 | -72.31372 | 37826 ft | 453 kts | 248° |
| 2026-04-30 22:44 | 45.67427 | -72.48366 | 37820 ft | 454 kts | 248° |
| 2026-04-30 22:45 | 45.61570 | -72.74067 | 37831 ft | 458 kts | 257° |
| 2026-04-30 22:47 | 45.60027 | -73.01327 | 37848 ft | 460 kts | 262° |
| 2026-04-30 22:48 | 45.59036 | -73.19570 | 37835 ft | 460 kts | 262° |
| 2026-04-30 22:49 | 45.57492 | -73.46828 | 37840 ft | 461 kts | 262° |
| 2026-04-30 22:51 | 45.55881 | -73.74136 | 37838 ft | 461 kts | 262° |
| 2026-04-30 22:52 | 45.55049 | -73.87819 | 37840 ft | 461 kts | 262° |
| 2026-04-30 22:53 | 45.53914 | -74.06050 | 37847 ft | 461 kts | 262° |
| 2026-04-30 22:53 | 45.53048 | -74.19658 | 37854 ft | 461 kts | 262° |
| 2026-04-30 22:55 | 45.51564 | -74.42439 | 37865 ft | 462 kts | 262° |
| 2026-04-30 22:56 | 45.49396 | -74.60251 | 37862 ft | 458 kts | 256° |
| 2026-04-30 22:57 | 45.46227 | -74.82515 | 37872 ft | 459 kts | 256° |
| 2026-04-30 22:58 | 45.43698 | -75.00241 | 37880 ft | 458 kts | 256° |
| 2026-04-30 22:59 | 45.39832 | -75.26885 | 37889 ft | 458 kts | 256° |